createdAt,value
2022-11-06T00:00:48.841Z,70.45
2022-11-06T00:03:54.854Z,70.68
2022-11-06T00:06:56.778Z,70.85
2022-11-06T00:09:58.693Z,70.92
2022-11-06T00:13:01.627Z,70.84
2022-11-06T00:16:04.518Z,70.71
2022-11-06T00:19:07.199Z,70.63
2022-11-06T00:22:09.039Z,70.72
2022-11-06T00:25:11.744Z,70.67
2022-11-06T00:28:13.908Z,70.60
2022-11-06T00:31:21.711Z,70.84
2022-11-06T00:34:23.545Z,70.81
2022-11-06T00:37:25.372Z,70.76
2022-11-06T00:40:27.157Z,71.17
2022-11-06T00:43:29.007Z,71.29
2022-11-06T00:46:31.449Z,71.34
2022-11-06T00:49:33.233Z,71.38
2022-11-06T00:52:35.219Z,71.46
2022-11-06T00:55:37.049Z,71.43
2022-11-06T00:58:40.059Z,71.52
2022-11-06T01:01:43.351Z,72.91
2022-11-06T01:04:45.325Z,72.39
2022-11-06T01:07:47.183Z,72.34
2022-11-06T01:10:48.971Z,72.43
2022-11-06T01:13:53.611Z,72.57
2022-11-06T01:16:55.643Z,72.71
2022-11-06T01:19:57.471Z,72.62
2022-11-06T01:22:59.313Z,72.54
2022-11-06T01:26:03.234Z,72.67
2022-11-06T01:29:07.293Z,72.64
2022-11-06T01:32:09.464Z,72.63
2022-11-06T01:35:11.279Z,72.62
2022-11-06T01:38:14.167Z,72.52
2022-11-06T01:41:23.073Z,72.57
2022-11-06T01:44:33.789Z,72.66
2022-11-06T01:47:35.791Z,72.67
2022-11-06T01:50:38.266Z,72.46
2022-11-06T01:53:40.462Z,72.68
2022-11-06T01:56:44.943Z,72.76
2022-11-06T01:59:47.046Z,72.71
2022-11-06T02:02:50.270Z,72.79
2022-11-06T02:05:53.515Z,72.71
2022-11-06T02:08:55.433Z,72.84
2022-11-06T02:12:05.647Z,72.87
2022-11-06T02:15:23.321Z,73.03
2022-11-06T02:18:38.077Z,72.74
2022-11-06T02:21:54.165Z,72.50
2022-11-06T02:24:56.009Z,72.47
2022-11-06T02:28:04.701Z,72.29
2022-11-06T02:31:14.150Z,72.10
2022-11-06T02:34:19.147Z,72.23
2022-11-06T02:37:28.464Z,72.01
2022-11-06T02:40:34.792Z,72.14
2022-11-06T02:43:44.495Z,72.03
2022-11-06T02:47:02.879Z,72.11
2022-11-06T02:50:12.767Z,72.06
2022-11-06T02:53:18.609Z,72.13
2022-11-06T02:56:25.895Z,72.18
2022-11-06T02:59:38.574Z,72.13
2022-11-06T03:02:46.424Z,72.21
2022-11-06T03:06:09.817Z,72.20
2022-11-06T03:09:20.611Z,72.35
2022-11-06T03:12:34.278Z,72.13
2022-11-06T03:15:45.318Z,72.23
2022-11-06T03:19:03.785Z,72.22
2022-11-06T03:22:10.750Z,72.14
2022-11-06T03:25:21.526Z,72.22
2022-11-06T03:28:35.093Z,72.63
2022-11-06T03:31:42.262Z,72.58
2022-11-06T03:35:09.402Z,72.57
2022-11-06T03:38:25.351Z,72.45
2022-11-06T03:41:34.160Z,72.50
2022-11-06T03:44:41.368Z,72.53
2022-11-06T03:47:51.753Z,72.61
2022-11-06T03:51:03.392Z,72.50
2022-11-06T03:54:14.179Z,72.62
2022-11-06T03:57:23.878Z,72.33
2022-11-06T04:00:25.680Z,72.62
2022-11-06T04:03:33.807Z,72.50
2022-11-06T04:06:41.517Z,72.50
2022-11-06T04:10:10.328Z,72.64
2022-11-06T04:13:30.859Z,72.64
2022-11-06T04:16:43.119Z,72.67
2022-11-06T04:19:52.651Z,72.40
2022-11-06T04:23:05.689Z,72.24
2022-11-06T04:26:48.550Z,72.34
2022-11-06T04:30:03.186Z,72.26
2022-11-06T04:33:19.772Z,72.33
2022-11-06T04:36:46.925Z,72.32
2022-11-06T04:40:15.191Z,72.17
2022-11-06T04:43:37.022Z,72.35
2022-11-06T04:47:09.124Z,72.48
2022-11-06T04:50:13.615Z,72.58
2022-11-06T04:53:17.253Z,72.60
2022-11-06T04:56:35.240Z,72.68
2022-11-06T04:59:37.540Z,72.74
2022-11-06T05:02:39.446Z,72.72
2022-11-06T05:05:43.156Z,72.76
2022-11-06T05:08:46.253Z,73.24
2022-11-06T05:11:48.124Z,73.03
2022-11-06T05:14:49.994Z,73.11
2022-11-06T05:17:51.853Z,72.92
2022-11-06T05:21:14.320Z,73.10
2022-11-06T05:24:16.241Z,72.99
2022-11-06T05:27:18.092Z,72.99
2022-11-06T05:30:19.953Z,73.06
2022-11-06T05:33:21.845Z,73.05
2022-11-06T05:36:23.719Z,73.12
2022-11-06T05:39:25.646Z,73.17
2022-11-06T05:42:27.530Z,73.04
2022-11-06T05:45:29.412Z,73.20
2022-11-06T05:48:31.334Z,73.17
2022-11-06T05:51:33.132Z,72.85
2022-11-06T05:54:35.014Z,73.03
2022-11-06T05:57:36.859Z,72.85
2022-11-06T06:00:38.735Z,73.06
2022-11-06T06:03:40.735Z,72.84
2022-11-06T06:06:42.848Z,72.79
2022-11-06T06:09:44.760Z,73.02
2022-11-06T06:12:48.910Z,72.93
2022-11-06T06:15:50.729Z,72.63
2022-11-06T06:18:52.643Z,72.75
2022-11-06T06:21:54.519Z,72.53
2022-11-06T06:24:56.400Z,73.01
2022-11-06T06:27:58.520Z,72.71
2022-11-06T06:31:04.625Z,73.00
2022-11-06T06:34:06.664Z,72.95
2022-11-06T06:37:09.055Z,73.00
2022-11-06T06:40:11.511Z,73.10
2022-11-06T06:43:13.367Z,72.91
2022-11-06T06:46:16.070Z,72.96
2022-11-06T06:49:18.139Z,73.11
2022-11-06T06:52:19.990Z,73.06
2022-11-06T06:55:21.810Z,72.83
2022-11-06T06:58:24.320Z,73.10
2022-11-06T07:01:26.732Z,73.17
2022-11-06T07:04:28.613Z,73.66
2022-11-06T07:07:30.483Z,73.32
2022-11-06T07:10:33.030Z,73.50
2022-11-06T07:13:36.311Z,73.29
2022-11-06T07:16:38.484Z,73.24
2022-11-06T07:19:40.425Z,73.72
2022-11-06T07:22:42.283Z,72.89
2022-11-06T07:25:44.081Z,72.86
2022-11-06T07:28:45.937Z,73.11
2022-11-06T07:31:47.729Z,73.02
2022-11-06T07:34:49.573Z,73.05
2022-11-06T07:37:51.437Z,73.19
2022-11-06T07:40:53.365Z,73.30
2022-11-06T07:43:55.135Z,73.14
2022-11-06T07:46:57.013Z,73.35
2022-11-06T07:49:58.955Z,72.91
2022-11-06T07:53:04.455Z,73.08
2022-11-06T07:56:06.973Z,72.95
2022-11-06T07:59:08.817Z,73.12
2022-11-06T08:02:13.941Z,72.83
2022-11-06T08:05:15.919Z,72.72
2022-11-06T08:08:18.278Z,72.38
2022-11-06T08:11:20.124Z,72.50
2022-11-06T08:14:22.010Z,72.33
2022-11-06T08:17:23.877Z,72.49
2022-11-06T08:20:26.222Z,72.07
2022-11-06T08:23:28.859Z,72.29
2022-11-06T08:26:30.957Z,72.32
2022-11-06T08:29:35.900Z,72.00
2022-11-06T08:32:41.885Z,72.04
2022-11-06T08:35:43.996Z,72.01
2022-11-06T08:38:48.631Z,71.82
2022-11-06T08:41:50.433Z,71.82
2022-11-06T08:44:52.233Z,71.78
2022-11-06T08:47:54.228Z,71.80
2022-11-06T08:50:56.242Z,71.67
2022-11-06T08:53:58.869Z,71.59
2022-11-06T08:57:00.804Z,71.76
2022-11-06T09:00:03.082Z,71.43
2022-11-06T09:03:07.700Z,71.42
2022-11-06T09:06:09.686Z,71.24
2022-11-06T09:09:11.564Z,71.37
2022-11-06T09:12:13.451Z,71.02
2022-11-06T09:15:15.533Z,71.13
2022-11-06T09:18:17.370Z,71.37
2022-11-06T09:21:19.238Z,71.51
2022-11-06T09:24:37.176Z,71.43
2022-11-06T09:27:48.670Z,71.57
2022-11-06T09:30:50.729Z,71.43
2022-11-06T09:33:52.645Z,71.33
2022-11-06T09:36:54.446Z,70.82
2022-11-06T09:39:57.769Z,70.67
2022-11-06T09:43:50.161Z,70.77
2022-11-06T09:46:47.471Z,70.24
2022-11-06T09:49:55.060Z,70.15
2022-11-06T09:53:05.847Z,70.30
2022-11-06T09:56:12.831Z,70.27
2022-11-06T09:59:18.281Z,70.45
2022-11-06T10:02:32.827Z,70.64
2022-11-06T10:05:38.137Z,70.23
2022-11-06T10:08:43.971Z,70.38
2022-11-06T10:12:20.597Z,70.47
2022-11-06T10:16:09.031Z,70.53
2022-11-06T10:19:40.213Z,70.39
2022-11-06T10:23:05.000Z,70.25
2022-11-06T10:26:15.082Z,70.05
2022-11-06T10:29:25.614Z,69.73
2022-11-06T10:32:42.255Z,69.63
2022-11-06T10:36:10.134Z,69.95
2022-11-06T10:39:26.930Z,69.53
2022-11-06T10:42:38.278Z,69.89
2022-11-06T10:45:44.678Z,69.89
2022-11-06T10:48:53.023Z,69.79
2022-11-06T10:52:28.396Z,69.11
2022-11-06T10:55:31.033Z,69.39
2022-11-06T10:58:34.571Z,69.18
2022-11-06T11:01:38.542Z,69.04
2022-11-06T11:04:41.100Z,68.76
2022-11-06T11:07:45.020Z,68.39
2022-11-06T11:11:03.954Z,68.40
2022-11-06T11:14:06.485Z,68.30
2022-11-06T11:17:09.093Z,68.21
2022-11-06T11:20:34.579Z,68.02
2022-11-06T11:23:36.414Z,68.23
2022-11-06T11:26:44.955Z,68.76
2022-11-06T11:29:50.133Z,68.16
2022-11-06T11:32:56.261Z,68.16
2022-11-06T11:35:59.158Z,68.05
2022-11-06T11:39:01.073Z,68.20
2022-11-06T11:42:27.674Z,67.80
2022-11-06T11:45:29.547Z,68.09
2022-11-06T11:48:51.476Z,67.84
2022-11-06T11:51:53.751Z,67.97
2022-11-06T11:54:55.584Z,68.31
2022-11-06T11:58:01.580Z,68.23
2022-11-06T12:01:05.463Z,67.67
2022-11-06T12:04:15.508Z,68.01
2022-11-06T12:07:32.769Z,67.77
2022-11-06T12:10:44.984Z,67.76
2022-11-06T12:14:21.898Z,67.56
2022-11-06T12:17:24.680Z,67.23
2022-11-06T12:20:51.060Z,67.55
2022-11-06T12:24:03.444Z,67.53
2022-11-06T12:27:11.848Z,67.36
2022-11-06T12:30:17.645Z,67.52
2022-11-06T12:33:59.645Z,67.47
2022-11-06T12:37:04.067Z,67.17
2022-11-06T12:40:31.788Z,67.39
2022-11-06T12:43:51.175Z,67.45
2022-11-06T12:47:26.408Z,67.43
2022-11-06T12:50:31.405Z,67.15
2022-11-06T12:53:51.230Z,67.26
2022-11-06T12:57:18.017Z,67.47
2022-11-06T13:00:22.775Z,67.35
2022-11-06T13:03:38.640Z,67.50
2022-11-06T13:06:55.381Z,67.69
2022-11-06T13:10:03.221Z,67.68
2022-11-06T13:13:29.452Z,68.03
2022-11-06T13:16:46.499Z,67.83
2022-11-06T13:20:03.388Z,67.92
2022-11-06T13:23:26.851Z,67.68
2022-11-06T13:26:45.500Z,68.04
2022-11-06T13:29:48.261Z,68.19
2022-11-06T13:33:02.776Z,67.76
2022-11-06T13:36:05.942Z,68.26
2022-11-06T13:39:26.622Z,68.45
2022-11-06T13:42:42.379Z,68.84
2022-11-06T13:46:02.536Z,68.46
2022-11-06T13:49:39.752Z,68.22
2022-11-06T13:53:07.735Z,68.18
2022-11-06T13:56:34.463Z,68.16
2022-11-06T13:59:51.615Z,68.26
2022-11-06T14:03:17.249Z,68.51
2022-11-06T14:06:22.069Z,68.84
2022-11-06T14:09:27.596Z,69.14
2022-11-06T14:12:29.740Z,68.91
2022-11-06T14:15:41.783Z,68.89
2022-11-06T14:18:43.832Z,68.85
2022-11-06T14:21:52.019Z,68.71
2022-11-06T14:25:01.020Z,69.12
2022-11-06T14:28:05.795Z,69.10
2022-11-06T14:31:15.046Z,69.20
2022-11-06T14:34:30.492Z,69.19
2022-11-06T14:37:35.030Z,69.24
2022-11-06T14:40:38.674Z,69.18
2022-11-06T14:43:50.841Z,69.45
2022-11-06T14:46:59.752Z,69.16
2022-11-06T14:50:06.327Z,69.55
2022-11-06T14:53:21.858Z,69.24
2022-11-06T14:56:27.110Z,69.36
2022-11-06T14:59:40.521Z,69.40
2022-11-06T15:02:43.705Z,69.27
2022-11-06T15:05:51.048Z,69.41
2022-11-06T15:09:15.008Z,69.60
2022-11-06T15:12:16.824Z,69.88
2022-11-06T15:15:19.963Z,69.86
2022-11-06T15:18:24.861Z,70.15
2022-11-06T15:21:31.828Z,69.83
2022-11-06T15:24:38.613Z,70.06
2022-11-06T15:27:45.402Z,69.79
2022-11-06T15:30:56.649Z,69.78
2022-11-06T15:34:05.848Z,69.85
2022-11-06T15:37:24.267Z,70.10
2022-11-06T15:40:32.662Z,70.20
2022-11-06T15:43:36.597Z,70.19
2022-11-06T15:46:52.454Z,70.08
2022-11-06T15:50:17.882Z,70.33
2022-11-06T15:53:29.304Z,70.22
2022-11-06T15:56:34.715Z,70.10
2022-11-06T15:59:36.649Z,70.34
2022-11-06T16:02:49.279Z,70.63
2022-11-06T16:05:53.046Z,70.66
2022-11-06T16:08:56.894Z,70.67
2022-11-06T16:11:59.294Z,70.79
2022-11-06T16:15:01.674Z,70.82
2022-11-06T16:18:05.639Z,70.79
2022-11-06T16:21:20.102Z,70.79
2022-11-06T16:24:23.751Z,70.85
2022-11-06T16:27:27.180Z,71.05
2022-11-06T16:30:30.952Z,71.44
2022-11-06T16:33:32.970Z,71.65
2022-11-06T16:37:02.047Z,72.03
2022-11-06T16:40:06.550Z,71.79
2022-11-06T16:43:16.366Z,72.15
2022-11-06T16:46:18.398Z,72.21
2022-11-06T16:49:49.038Z,72.49
2022-11-06T16:52:54.759Z,72.24
2022-11-06T16:56:02.241Z,72.42
2022-11-06T16:59:09.587Z,72.42
2022-11-06T17:02:23.058Z,72.82
2022-11-06T17:05:33.773Z,72.92
2022-11-06T17:08:38.212Z,72.65
2022-11-06T17:11:40.119Z,73.11
2022-11-06T17:14:45.297Z,73.08
2022-11-06T17:17:49.619Z,73.47
2022-11-06T17:20:56.357Z,73.54
2022-11-06T17:24:12.258Z,73.29
2022-11-06T17:27:20.035Z,73.56
2022-11-06T17:30:21.840Z,73.33
2022-11-06T17:33:23.872Z,73.59
2022-11-06T17:36:30.017Z,73.93
2022-11-06T17:39:32.853Z,73.93
2022-11-06T17:42:37.410Z,73.88
2022-11-06T17:45:42.278Z,74.02
2022-11-06T17:48:44.084Z,74.66
2022-11-06T17:51:50.297Z,74.33
2022-11-06T17:54:52.216Z,74.76
2022-11-06T17:57:54.574Z,74.86
2022-11-06T18:01:05.054Z,74.91
2022-11-06T18:04:07.385Z,75.04
2022-11-06T18:07:09.668Z,74.75
2022-11-06T18:10:11.674Z,74.99
2022-11-06T18:13:14.738Z,75.33
2022-11-06T18:16:23.036Z,75.73
2022-11-06T18:19:26.073Z,75.89
2022-11-06T18:22:27.990Z,75.92
2022-11-06T18:25:29.797Z,76.02
2022-11-06T18:28:31.730Z,75.79
2022-11-06T18:31:34.286Z,76.03
2022-11-06T18:34:36.123Z,75.68
2022-11-06T18:37:38.006Z,75.79
2022-11-06T18:40:41.477Z,75.59
2022-11-06T18:43:50.879Z,75.87
2022-11-06T18:46:52.844Z,75.39
2022-11-06T18:49:54.678Z,75.75
2022-11-06T18:52:58.295Z,75.72
2022-11-06T18:56:00.630Z,76.00
2022-11-06T18:59:02.661Z,76.05
2022-11-06T19:02:04.773Z,75.96
2022-11-06T19:05:07.319Z,75.93
2022-11-06T19:08:09.257Z,76.06
2022-11-06T19:11:14.030Z,75.77
2022-11-06T19:14:15.869Z,75.90
2022-11-06T19:17:17.738Z,75.60
2022-11-06T19:20:21.015Z,75.40
2022-11-06T19:23:22.903Z,75.33
2022-11-06T19:26:31.089Z,75.50
2022-11-06T19:29:33.562Z,75.38
2022-11-06T19:32:35.452Z,75.04
2022-11-06T19:35:37.374Z,75.07
2022-11-06T19:38:39.292Z,75.36
2022-11-06T19:41:41.166Z,75.53
2022-11-06T19:44:42.952Z,75.21
2022-11-06T19:47:44.836Z,74.82
2022-11-06T19:50:59.603Z,74.64
2022-11-06T19:54:02.025Z,74.45
2022-11-06T19:57:28.815Z,74.39
2022-11-06T20:00:25.718Z,74.73
2022-11-06T20:03:28.632Z,74.70
2022-11-06T20:06:30.320Z,75.41
2022-11-06T20:09:34.439Z,75.09
2022-11-06T20:12:36.360Z,75.26
2022-11-06T20:15:38.190Z,75.20
2022-11-06T20:18:40.107Z,75.07
2022-11-06T20:21:42.001Z,75.21
2022-11-06T20:24:43.916Z,75.08
2022-11-06T20:27:46.501Z,75.27
2022-11-06T20:30:49.147Z,74.98
2022-11-06T20:33:52.184Z,74.95
2022-11-06T20:36:54.416Z,75.34
2022-11-06T20:39:56.306Z,75.07
2022-11-06T20:42:58.169Z,75.04
2022-11-06T20:46:01.865Z,74.97
2022-11-06T20:49:03.837Z,74.67
2022-11-06T20:52:14.663Z,75.02
2022-11-06T20:55:17.493Z,75.52
2022-11-06T20:58:19.351Z,75.42
2022-11-06T21:01:24.185Z,75.21
2022-11-06T21:04:26.131Z,75.09
2022-11-06T21:07:28.013Z,75.11
2022-11-06T21:10:29.957Z,75.40
2022-11-06T21:13:32.070Z,75.42
2022-11-06T21:16:36.155Z,75.33
2022-11-06T21:19:37.993Z,75.38
2022-11-06T21:22:39.844Z,75.60
2022-11-06T21:25:45.178Z,75.45
2022-11-06T21:28:47.628Z,75.28
2022-11-06T21:31:50.153Z,75.44
2022-11-06T21:34:52.001Z,75.32
2022-11-06T21:37:53.834Z,75.60
2022-11-06T21:40:55.728Z,75.46
2022-11-06T21:43:57.750Z,75.67
2022-11-06T21:46:59.595Z,75.44
2022-11-06T21:50:01.445Z,75.45
2022-11-06T21:53:21.712Z,75.78
2022-11-06T21:56:26.203Z,75.68
2022-11-06T21:59:29.644Z,75.56
2022-11-06T22:02:31.606Z,75.58
2022-11-06T22:05:33.687Z,75.28
2022-11-06T22:08:37.473Z,75.52
2022-11-06T22:11:42.381Z,75.20
2022-11-06T22:14:44.179Z,75.63
2022-11-06T22:17:46.030Z,75.80
2022-11-06T22:20:48.079Z,75.23
2022-11-06T22:23:50.677Z,75.26
2022-11-06T22:26:55.433Z,75.25
2022-11-06T22:29:57.376Z,74.84
2022-11-06T22:32:59.154Z,74.93
2022-11-06T22:36:02.171Z,75.21
2022-11-06T22:39:04.671Z,74.81
2022-11-06T22:42:06.647Z,74.88
2022-11-06T22:45:08.933Z,74.96
2022-11-06T22:48:10.923Z,75.58
2022-11-06T22:51:15.437Z,75.39
2022-11-06T22:54:17.669Z,75.34
2022-11-06T22:57:19.645Z,75.42
2022-11-06T23:00:22.779Z,75.31
2022-11-06T23:03:27.014Z,75.40
2022-11-06T23:06:29.723Z,75.31
2022-11-06T23:09:31.579Z,75.51
2022-11-06T23:12:34.254Z,75.57
2022-11-06T23:15:36.420Z,75.54
2022-11-06T23:18:39.062Z,75.31
2022-11-06T23:21:42.330Z,75.06
2022-11-06T23:24:44.295Z,74.93
2022-11-06T23:27:49.851Z,74.65
2022-11-06T23:30:51.903Z,74.77
2022-11-06T23:33:53.730Z,74.87
2022-11-06T23:36:55.533Z,74.66
2022-11-06T23:39:57.441Z,74.48
2022-11-06T23:42:59.324Z,74.86
2022-11-06T23:46:01.136Z,74.72
2022-11-06T23:49:03.037Z,74.68
2022-11-06T23:52:05.100Z,74.69
2022-11-06T23:55:07.367Z,74.70
2022-11-06T23:58:09.271Z,74.47
